createdAt,value
2022-08-08T00:00:50.375Z,0.00
2022-08-08T00:00:55.026Z,0.00
2022-08-08T00:01:11.509Z,0.00
2022-08-08T00:02:33.266Z,0.00
2022-08-08T00:03:19.843Z,0.00
2022-08-08T00:04:16.334Z,0.00
2022-08-08T00:05:11.605Z,0.00
2022-08-08T00:06:11.628Z,0.00
2022-08-08T00:07:12.977Z,0.00
2022-08-08T00:08:12.547Z,0.00
2022-08-08T00:09:12.232Z,0.00
2022-08-08T00:10:11.733Z,0.00
2022-08-08T00:11:13.210Z,0.00
2022-08-08T00:12:11.787Z,0.00
2022-08-08T00:13:11.811Z,0.00
2022-08-08T00:14:15.912Z,0.00
2022-08-08T00:15:13.082Z,0.00
2022-08-08T00:16:11.888Z,0.00
2022-08-08T00:17:22.939Z,0.00
2022-08-08T00:18:11.939Z,0.00
2022-08-08T00:19:11.966Z,0.00
2022-08-08T00:20:14.598Z,0.00
2022-08-08T00:21:12.017Z,0.00
2022-08-08T00:22:12.040Z,0.00
2022-08-08T00:23:14.805Z,0.00
2022-08-08T00:24:12.094Z,0.00
2022-08-08T00:25:12.118Z,0.00
2022-08-08T00:26:26.029Z,0.00
2022-08-08T00:28:34.612Z,0.00
2022-08-08T00:29:42.260Z,0.00
2022-08-08T00:32:21.542Z,0.00
2022-08-08T00:32:35.132Z,0.00
2022-08-08T00:34:24.219Z,0.00
2022-08-08T00:35:24.248Z,0.00
2022-08-08T00:37:48.325Z,0.00
2022-08-08T00:38:31.804Z,0.00
2022-08-08T00:41:11.864Z,0.00
2022-08-08T00:41:21.976Z,0.00
2022-08-08T00:43:25.760Z,0.00
2022-08-08T00:44:25.264Z,0.00
2022-08-08T00:46:32.188Z,0.00
2022-08-08T00:47:36.801Z,0.00
2022-08-08T00:49:33.795Z,0.00
2022-08-08T00:50:33.323Z,0.00
2022-08-08T00:52:39.067Z,0.00
2022-08-08T00:53:43.556Z,0.00
2022-08-08T00:55:53.938Z,0.00
2022-08-08T00:56:41.762Z,0.00
2022-08-08T00:57:41.415Z,0.00
2022-08-08T00:58:43.714Z,0.00
2022-08-08T00:59:43.990Z,0.00
2022-08-08T01:00:41.495Z,0.00
2022-08-08T01:01:41.597Z,0.00
2022-08-08T01:03:57.471Z,0.00
2022-08-08T01:04:02.570Z,0.00
2022-08-08T01:04:41.994Z,0.00
2022-08-08T01:05:42.219Z,0.00
2022-08-08T01:06:41.641Z,0.00
2022-08-08T01:07:56.425Z,0.00
2022-08-08T01:08:46.619Z,0.00
2022-08-08T01:09:41.742Z,0.00
2022-08-08T01:10:41.746Z,0.00
2022-08-08T01:11:41.768Z,0.00
2022-08-08T01:12:41.790Z,0.00
2022-08-08T01:13:43.359Z,0.00
2022-08-08T01:14:54.078Z,0.00
2022-08-08T01:15:44.032Z,0.00
2022-08-08T01:16:41.903Z,0.00
2022-08-08T01:17:53.280Z,0.00
2022-08-08T01:18:53.764Z,0.00
2022-08-08T01:20:02.146Z,0.00
2022-08-08T01:20:44.211Z,0.00
2022-08-08T01:22:13.125Z,0.00
2022-08-08T01:22:43.199Z,0.00
2022-08-08T01:24:06.550Z,0.00
2022-08-08T01:24:43.599Z,0.00
2022-08-08T01:25:42.686Z,0.00
2022-08-08T01:26:47.793Z,0.00
2022-08-08T01:27:43.642Z,0.00
2022-08-08T01:28:42.206Z,0.00
2022-08-08T01:29:59.326Z,0.00
2022-08-08T01:30:42.257Z,0.00
2022-08-08T01:32:12.913Z,0.00
2022-08-08T01:32:42.297Z,0.00
2022-08-08T01:33:54.262Z,0.00
2022-08-08T01:34:42.353Z,0.00
2022-08-08T01:35:42.377Z,0.00
2022-08-08T01:36:42.398Z,0.00
2022-08-08T01:37:58.295Z,0.00
2022-08-08T01:38:42.451Z,0.00
2022-08-08T01:39:42.531Z,0.00
2022-08-08T01:40:42.498Z,0.00
2022-08-08T01:41:43.780Z,0.00
2022-08-08T01:42:42.558Z,0.00
2022-08-08T01:43:42.573Z,0.00
2022-08-08T01:44:42.600Z,0.00
2022-08-08T01:45:42.623Z,0.00
2022-08-08T01:46:42.651Z,0.00
2022-08-08T01:48:14.473Z,0.00
2022-08-08T01:48:43.763Z,0.00
2022-08-08T01:49:42.742Z,0.00
2022-08-08T01:50:42.996Z,0.00
2022-08-08T01:52:27.692Z,0.00
2022-08-08T01:55:16.184Z,0.00
2022-08-08T01:55:16.185Z,0.00
2022-08-08T01:55:25.651Z,0.00
2022-08-08T01:56:28.417Z,0.00
2022-08-08T01:56:46.785Z,0.00
2022-08-08T01:58:11.559Z,0.00
2022-08-08T01:58:46.509Z,0.00
2022-08-08T02:00:02.041Z,0.00
2022-08-08T02:00:43.040Z,0.00
2022-08-08T02:02:00.715Z,0.00
2022-08-08T02:02:43.278Z,0.00
2022-08-08T02:03:55.202Z,0.00
2022-08-08T02:04:43.667Z,0.00
2022-08-08T02:05:56.887Z,0.00
2022-08-08T02:06:43.615Z,0.00
2022-08-08T02:07:48.876Z,0.00
2022-08-08T02:08:45.686Z,0.00
2022-08-08T02:10:02.274Z,0.00
2022-08-08T02:10:45.094Z,0.00
2022-08-08T02:11:59.362Z,0.00
2022-08-08T02:12:43.303Z,0.00
2022-08-08T02:13:52.686Z,0.00
2022-08-08T02:14:50.175Z,0.00
2022-08-08T02:15:43.376Z,0.00
2022-08-08T02:16:43.399Z,0.00
2022-08-08T02:17:43.670Z,0.00
2022-08-08T02:18:43.448Z,0.00
2022-08-08T02:20:08.080Z,0.00
2022-08-08T02:21:00.786Z,0.00
2022-08-08T02:21:43.566Z,0.00
2022-08-08T02:22:52.660Z,0.00
2022-08-08T02:23:43.572Z,0.00
2022-08-08T02:24:44.314Z,0.00
2022-08-08T02:25:48.371Z,0.00
2022-08-08T02:26:43.667Z,0.00
2022-08-08T02:27:43.919Z,0.00
2022-08-08T02:28:48.126Z,0.00
2022-08-08T02:29:51.811Z,0.00
2022-08-08T02:30:49.703Z,0.00
2022-08-08T02:31:58.692Z,0.00
2022-08-08T02:32:43.796Z,0.00
2022-08-08T02:34:08.499Z,0.00
2022-08-08T02:35:08.527Z,0.00
2022-08-08T02:36:04.281Z,0.00
2022-08-08T02:36:43.913Z,0.00
2022-08-08T02:37:52.580Z,0.00
2022-08-08T02:38:44.848Z,0.00
2022-08-08T02:40:00.121Z,0.00
2022-08-08T02:40:45.229Z,0.00
2022-08-08T02:41:59.424Z,0.00
2022-08-08T02:42:44.045Z,0.00
2022-08-08T02:44:39.045Z,0.00
2022-08-08T02:44:57.283Z,0.00
2022-08-08T02:45:54.114Z,0.00
2022-08-08T02:46:44.140Z,0.00
2022-08-08T02:47:46.813Z,0.00
2022-08-08T02:48:45.134Z,0.00
2022-08-08T02:49:51.107Z,0.00
2022-08-08T02:50:52.942Z,0.00
2022-08-08T02:51:55.078Z,0.00
2022-08-08T02:52:50.243Z,0.00
2022-08-08T02:53:44.313Z,0.00
2022-08-08T02:54:44.338Z,0.00
2022-08-08T02:55:44.356Z,0.00
2022-08-08T02:56:44.383Z,0.00
2022-08-08T02:57:45.636Z,0.00
2022-08-08T02:58:44.436Z,0.00
2022-08-08T02:59:58.562Z,0.00
2022-08-08T03:00:50.787Z,0.00
2022-08-08T03:01:50.095Z,0.00
2022-08-08T03:02:50.469Z,0.00
2022-08-08T03:05:00.750Z,0.00
2022-08-08T03:05:02.328Z,0.00
2022-08-08T03:05:46.553Z,0.00
2022-08-08T03:06:44.626Z,0.00
2022-08-08T03:07:58.407Z,0.00
2022-08-08T03:08:44.680Z,0.00
2022-08-08T03:09:45.036Z,0.00
2022-08-08T03:10:53.567Z,0.00
2022-08-08T03:12:02.194Z,0.00
2022-08-08T03:13:01.351Z,0.00
2022-08-08T03:15:56.987Z,0.00
2022-08-08T03:15:59.173Z,0.00
2022-08-08T03:16:03.865Z,0.00
2022-08-08T03:16:48.358Z,0.00
2022-08-08T03:17:59.670Z,0.00
2022-08-08T03:18:44.927Z,0.00
2022-08-08T03:19:51.103Z,4.00
2022-08-08T03:20:47.125Z,4.00
2022-08-08T03:21:58.917Z,4.00
2022-08-08T03:22:45.017Z,0.00
2022-08-08T03:23:59.811Z,4.00
2022-08-08T03:24:45.070Z,4.00
2022-08-08T03:25:45.094Z,4.00
2022-08-08T03:26:45.120Z,4.00
2022-08-08T03:27:45.146Z,4.00
2022-08-08T03:28:45.168Z,8.00
2022-08-08T03:29:54.658Z,8.00
2022-08-08T03:30:48.832Z,8.00
2022-08-08T03:32:06.092Z,12.00
2022-08-08T03:32:47.321Z,12.00
2022-08-08T03:33:58.919Z,12.00
2022-08-08T03:34:45.337Z,12.00
2022-08-08T03:35:45.341Z,20.00
2022-08-08T03:36:46.435Z,24.00
2022-08-08T03:38:53.719Z,24.00
2022-08-08T03:38:57.694Z,28.00
2022-08-08T03:39:52.031Z,32.00
2022-08-08T03:40:49.935Z,36.00
2022-08-08T03:42:26.642Z,44.00
2022-08-08T03:42:45.698Z,48.00
2022-08-08T03:43:45.534Z,52.00
2022-08-08T03:44:52.080Z,60.00
2022-08-08T03:46:03.272Z,68.00
2022-08-08T03:46:47.188Z,76.00
2022-08-08T03:47:48.316Z,84.00
2022-08-08T03:49:09.404Z,96.00
2022-08-08T03:50:00.646Z,108.00
2022-08-08T03:50:45.701Z,120.00
2022-08-08T03:51:51.478Z,132.00
2022-08-08T03:52:45.750Z,144.00
2022-08-08T03:53:47.745Z,164.00
2022-08-08T03:55:02.667Z,180.00
2022-08-08T03:55:57.621Z,192.00
2022-08-08T03:56:46.405Z,212.00
2022-08-08T03:58:31.085Z,228.00
2022-08-08T03:58:47.746Z,252.00
2022-08-08T03:59:57.362Z,268.00
2022-08-08T04:01:02.160Z,292.00
2022-08-08T04:02:12.525Z,316.00
2022-08-08T04:02:51.742Z,340.00
2022-08-08T04:04:00.163Z,364.00
2022-08-08T04:04:46.121Z,392.00
2022-08-08T04:05:49.819Z,416.00
2022-08-08T04:06:46.094Z,452.00
2022-08-08T04:07:46.117Z,480.00
2022-08-08T04:08:46.159Z,512.00
2022-08-08T04:09:59.094Z,544.00
2022-08-08T04:10:46.187Z,576.00
2022-08-08T04:11:58.140Z,612.00
2022-08-08T04:12:46.256Z,652.00
2022-08-08T04:14:03.014Z,688.00
2022-08-08T04:14:46.289Z,724.00
2022-08-08T04:15:54.809Z,764.00
2022-08-08T04:16:49.317Z,804.00
2022-08-08T04:17:59.002Z,848.00
2022-08-08T04:18:48.840Z,892.00
2022-08-08T04:19:46.406Z,936.00
2022-08-08T04:20:46.432Z,980.00
2022-08-08T04:21:46.457Z,1024.00
2022-08-08T04:22:46.484Z,1076.00
2022-08-08T04:24:11.856Z,1160.00
2022-08-08T04:24:50.116Z,1276.00
2022-08-08T04:25:46.554Z,1376.00
2022-08-08T04:26:57.929Z,1472.00
2022-08-08T04:28:10.534Z,1588.00
2022-08-08T04:28:46.624Z,1680.00
2022-08-08T04:30:00.856Z,1764.00
2022-08-08T04:30:46.678Z,1852.00
2022-08-08T04:31:59.045Z,1924.00
2022-08-08T04:32:49.920Z,2004.00
2022-08-08T04:33:46.753Z,2092.00
2022-08-08T04:34:55.339Z,2176.00
2022-08-08T04:35:50.911Z,2272.00
2022-08-08T04:36:46.827Z,2356.00
2022-08-08T04:37:46.851Z,2436.00
2022-08-08T04:38:47.498Z,2524.00
2022-08-08T04:40:03.994Z,2596.00
2022-08-08T04:40:53.634Z,2608.00
2022-08-08T04:41:46.961Z,2712.00
2022-08-08T04:42:56.659Z,2884.00
2022-08-08T04:43:51.173Z,2988.00
2022-08-08T04:44:47.791Z,3084.00
2022-08-08T04:45:47.078Z,3028.00
2022-08-08T04:46:47.085Z,2684.00
2022-08-08T04:47:47.237Z,2660.00
2022-08-08T04:48:47.154Z,2760.00
2022-08-08T04:50:00.822Z,2648.00
2022-08-08T04:50:47.185Z,2776.00
2022-08-08T04:51:55.244Z,2996.00
2022-08-08T04:52:48.676Z,3328.00
2022-08-08T04:54:27.102Z,3280.00
2022-08-08T04:54:50.668Z,2936.00
2022-08-08T04:55:55.893Z,2856.00
2022-08-08T04:56:47.344Z,2904.00
2022-08-08T04:57:47.370Z,2912.00
2022-08-08T04:58:48.479Z,2896.00
2022-08-08T04:59:47.422Z,2968.00
2022-08-08T05:00:47.711Z,2992.00
2022-08-08T05:01:48.579Z,3040.00
2022-08-08T05:02:47.605Z,3068.00
2022-08-08T05:04:09.877Z,3144.00
2022-08-08T05:04:47.559Z,3280.00
2022-08-08T05:05:47.582Z,3400.00
2022-08-08T05:06:47.608Z,3240.00
2022-08-08T05:07:47.637Z,3136.00
2022-08-08T05:08:51.388Z,3140.00
2022-08-08T05:09:47.695Z,3120.00
2022-08-08T05:10:47.714Z,3120.00
2022-08-08T05:11:57.319Z,3148.00
2022-08-08T05:12:59.945Z,3188.00
2022-08-08T05:13:54.992Z,3228.00
2022-08-08T05:14:47.819Z,3280.00
2022-08-08T05:16:50.925Z,3532.00
2022-08-08T05:16:53.898Z,3592.00
2022-08-08T05:17:54.595Z,3408.00
2022-08-08T05:18:47.936Z,3368.00
2022-08-08T05:20:10.475Z,3364.00
2022-08-08T05:20:49.993Z,3380.00
2022-08-08T05:21:59.820Z,3404.00
2022-08-08T05:22:48.025Z,3476.00
2022-08-08T05:23:48.048Z,3544.00
2022-08-08T05:24:49.383Z,3672.00
2022-08-08T05:25:48.105Z,3748.00
2022-08-08T05:26:48.818Z,3532.00
2022-08-08T05:27:48.149Z,3544.00
2022-08-08T05:28:57.068Z,3652.00
2022-08-08T05:29:50.386Z,3628.00
2022-08-08T05:30:48.232Z,3592.00
2022-08-08T05:32:04.987Z,3600.00
2022-08-08T05:32:48.340Z,3588.00
2022-08-08T05:33:49.673Z,3576.00
2022-08-08T05:34:49.334Z,3588.00
2022-08-08T05:35:53.962Z,3708.00
2022-08-08T05:36:48.386Z,3748.00
2022-08-08T05:37:53.869Z,3872.00
2022-08-08T05:38:48.439Z,3972.00
2022-08-08T05:39:48.518Z,3912.00
2022-08-08T05:40:48.976Z,3776.00
2022-08-08T05:41:55.193Z,3808.00
2022-08-08T05:42:49.195Z,3840.00
2022-08-08T05:44:03.248Z,4484.00
2022-08-08T05:44:49.037Z,4812.00
2022-08-08T05:45:54.782Z,4208.00
2022-08-08T05:46:51.329Z,3952.00
2022-08-08T05:48:00.151Z,3964.00
2022-08-08T05:48:52.117Z,4004.00
2022-08-08T05:49:55.976Z,4084.00
2022-08-08T05:50:48.757Z,4384.00
2022-08-08T05:51:49.658Z,4344.00
2022-08-08T05:52:48.806Z,4332.00
2022-08-08T05:54:25.797Z,4400.00
2022-08-08T05:54:51.200Z,4280.00
2022-08-08T05:56:10.198Z,4336.00
2022-08-08T05:56:48.908Z,4384.00
2022-08-08T05:58:05.416Z,4396.00
2022-08-08T05:58:53.844Z,4416.00
2022-08-08T06:00:00.730Z,4596.00
2022-08-08T06:00:58.349Z,4600.00
2022-08-08T06:01:55.921Z,5336.00
2022-08-08T06:02:49.143Z,5444.00
2022-08-08T06:03:53.534Z,7012.00
2022-08-08T06:04:54.555Z,21696.00
2022-08-08T06:05:51.674Z,34368.00
2022-08-08T06:06:50.356Z,32768.00
2022-08-08T06:07:49.197Z,33216.00
2022-08-08T06:08:53.393Z,32064.00
2022-08-08T06:10:00.931Z,21760.00
2022-08-08T06:10:49.278Z,33952.00
2022-08-08T06:11:49.301Z,33760.00
2022-08-08T06:12:49.550Z,33472.00
2022-08-08T06:13:49.595Z,32096.00
2022-08-08T06:14:49.388Z,31136.00
2022-08-08T06:15:50.984Z,31328.00
2022-08-08T06:16:52.153Z,30880.00
2022-08-08T06:17:51.288Z,31072.00
2022-08-08T06:18:50.252Z,30816.00
2022-08-08T06:19:49.534Z,29664.00
2022-08-08T06:20:50.434Z,29248.00
2022-08-08T06:21:51.452Z,28896.00
2022-08-08T06:22:50.175Z,30144.00
2022-08-08T06:24:03.412Z,30560.00
2022-08-08T06:24:51.198Z,31136.00
2022-08-08T06:26:35.307Z,31520.00
2022-08-08T06:26:50.561Z,30496.00
2022-08-08T06:27:49.775Z,30464.00
2022-08-08T06:28:49.809Z,30880.00
2022-08-08T06:30:00.900Z,30880.00
2022-08-08T06:30:49.879Z,27328.00
2022-08-08T06:32:09.060Z,27936.00
2022-08-08T06:32:50.186Z,26816.00
2022-08-08T06:34:26.635Z,29184.00
2022-08-08T06:34:52.484Z,35424.00
2022-08-08T06:36:04.870Z,36064.00
2022-08-08T06:36:53.780Z,35936.00
2022-08-08T06:37:51.059Z,36352.00
2022-08-08T06:38:50.123Z,36832.00
2022-08-08T06:39:55.848Z,38048.00
2022-08-08T06:40:53.704Z,38432.00
2022-08-08T06:41:50.215Z,38944.00
2022-08-08T06:42:50.259Z,39456.00
2022-08-08T06:43:57.484Z,39104.00
2022-08-08T06:44:50.319Z,39616.00
2022-08-08T06:45:50.353Z,39712.00
2022-08-08T06:46:50.381Z,38848.00
2022-08-08T06:47:52.616Z,38816.00
2022-08-08T06:48:50.449Z,39136.00
2022-08-08T06:49:56.811Z,38560.00
2022-08-08T06:50:52.069Z,38976.00
2022-08-08T06:51:57.776Z,38176.00
2022-08-08T06:52:50.660Z,39232.00
2022-08-08T06:53:56.140Z,39904.00
2022-08-08T06:54:50.667Z,41472.00
2022-08-08T06:56:01.920Z,42336.00
2022-08-08T06:56:51.561Z,41728.00
2022-08-08T06:57:56.350Z,41920.00
2022-08-08T06:58:50.784Z,42336.00
2022-08-08T07:00:10.138Z,43008.00
2022-08-08T07:00:58.026Z,43904.00
2022-08-08T07:02:55.903Z,44576.00
2022-08-08T07:04:36.856Z,45632.00
2022-08-08T07:06:02.063Z,44864.00
2022-08-08T07:06:58.968Z,43200.00
2022-08-08T07:07:59.002Z,41024.00
2022-08-08T07:08:59.036Z,43072.00
2022-08-08T07:10:00.353Z,44320.00
2022-08-08T07:10:59.107Z,46336.00
2022-08-08T07:11:59.163Z,39200.00
2022-08-08T07:12:59.177Z,20384.00
2022-08-08T07:14:00.795Z,6384.00
2022-08-08T07:14:59.247Z,5368.00
2022-08-08T07:16:04.615Z,5020.00
2022-08-08T07:16:59.307Z,4940.00
2022-08-08T07:18:01.784Z,4860.00
2022-08-08T07:18:59.376Z,4804.00
2022-08-08T07:19:59.916Z,4760.00
2022-08-08T07:21:01.873Z,4740.00
2022-08-08T07:22:05.581Z,4744.00
2022-08-08T07:22:59.510Z,4748.00
2022-08-08T07:24:03.865Z,4764.00
2022-08-08T07:24:59.577Z,4780.00
2022-08-08T07:25:59.605Z,4804.00
2022-08-08T07:26:59.641Z,4840.00
2022-08-08T07:28:02.107Z,4852.00
2022-08-08T07:28:59.709Z,4840.00
2022-08-08T07:30:08.056Z,4820.00
2022-08-08T07:30:59.771Z,4768.00
2022-08-08T07:31:59.797Z,4672.00
2022-08-08T07:33:01.103Z,4616.00
2022-08-08T07:33:59.871Z,4648.00
2022-08-08T07:35:01.099Z,4652.00
2022-08-08T07:35:59.924Z,4604.00
2022-08-08T07:36:59.956Z,4524.00
2022-08-08T07:38:10.281Z,4456.00
2022-08-08T07:39:00.078Z,4416.00
2022-08-08T07:40:00.182Z,4404.00
2022-08-08T07:41:04.664Z,4392.00
2022-08-08T07:42:04.765Z,4400.00
2022-08-08T07:43:00.136Z,4412.00
2022-08-08T07:44:00.192Z,4404.00
2022-08-08T07:45:00.202Z,4392.00
2022-08-08T07:46:17.797Z,4392.00
2022-08-08T07:47:00.259Z,4384.00
2022-08-08T07:48:00.290Z,4372.00
2022-08-08T07:49:00.320Z,4360.00
2022-08-08T07:50:00.349Z,4348.00
2022-08-08T07:51:00.384Z,4340.00
2022-08-08T07:52:00.409Z,4332.00
2022-08-08T07:53:00.435Z,4316.00
2022-08-08T07:54:02.958Z,4308.00
2022-08-08T07:55:00.498Z,4304.00
2022-08-08T07:56:00.531Z,4304.00
2022-08-08T07:57:01.767Z,4300.00
2022-08-08T07:58:00.587Z,4304.00
2022-08-08T07:59:00.626Z,4304.00
2022-08-08T08:00:00.650Z,4296.00
2022-08-08T08:01:00.731Z,4280.00
2022-08-08T08:02:34.636Z,4268.00
2022-08-08T08:03:00.735Z,4256.00
2022-08-08T08:04:00.768Z,4248.00
2022-08-08T08:05:00.802Z,4236.00
2022-08-08T08:06:00.842Z,4228.00
2022-08-08T08:07:00.864Z,4220.00
2022-08-08T08:08:00.909Z,4224.00
2022-08-08T08:09:00.919Z,4224.00
2022-08-08T08:10:00.946Z,4224.00
2022-08-08T08:11:00.978Z,4220.00
2022-08-08T08:12:01.007Z,4208.00
2022-08-08T08:13:01.043Z,4208.00
2022-08-08T08:14:07.396Z,4204.00
2022-08-08T08:15:02.988Z,4200.00
2022-08-08T08:16:01.132Z,4196.00
2022-08-08T08:17:01.170Z,4200.00
2022-08-08T08:18:01.189Z,4200.00
2022-08-08T08:19:01.217Z,4192.00
2022-08-08T08:20:01.245Z,4184.00
2022-08-08T08:21:01.279Z,4188.00
2022-08-08T08:22:02.494Z,4196.00
2022-08-08T08:23:01.340Z,4188.00
2022-08-08T08:24:02.767Z,4188.00
2022-08-08T08:25:07.576Z,4188.00
2022-08-08T08:26:01.443Z,4180.00
2022-08-08T08:27:02.714Z,4180.00
2022-08-08T08:28:02.977Z,4180.00
2022-08-08T08:29:01.519Z,4172.00
2022-08-08T08:30:01.564Z,4164.00
2022-08-08T08:31:01.579Z,4148.00
2022-08-08T08:32:03.284Z,4136.00
2022-08-08T08:33:01.638Z,4128.00
2022-08-08T08:34:01.670Z,4128.00
2022-08-08T08:35:03.396Z,4124.00
2022-08-08T08:36:18.765Z,4120.00
2022-08-08T08:37:03.337Z,4108.00
2022-08-08T08:38:18.777Z,4100.00
2022-08-08T08:39:01.845Z,4096.00
2022-08-08T08:40:03.070Z,4088.00
2022-08-08T08:41:03.215Z,4088.00
2022-08-08T08:42:01.906Z,4084.00
2022-08-08T08:43:01.938Z,4088.00
2022-08-08T08:44:13.173Z,4080.00
2022-08-08T08:45:02.000Z,4080.00
2022-08-08T08:46:03.451Z,4080.00
2022-08-08T08:47:02.057Z,4084.00
2022-08-08T08:48:02.089Z,4072.00
2022-08-08T08:49:02.119Z,4064.00
2022-08-08T08:50:02.152Z,4064.00
2022-08-08T08:51:02.177Z,4060.00
2022-08-08T08:52:02.210Z,4064.00
2022-08-08T08:53:04.843Z,4060.00
2022-08-08T08:54:02.271Z,4056.00
2022-08-08T08:55:02.302Z,4044.00
2022-08-08T08:56:02.985Z,4040.00
2022-08-08T08:57:02.363Z,4032.00
2022-08-08T08:58:02.392Z,4020.00
2022-08-08T08:59:02.422Z,4004.00
2022-08-08T09:00:05.604Z,3996.00
2022-08-08T09:01:05.326Z,3984.00
2022-08-08T09:02:02.586Z,3976.00
2022-08-08T09:03:02.545Z,3968.00
2022-08-08T09:04:02.581Z,3960.00
2022-08-08T09:05:02.605Z,3952.00
2022-08-08T09:06:02.636Z,3948.00
2022-08-08T09:07:02.665Z,3952.00
2022-08-08T09:08:18.131Z,3960.00
2022-08-08T09:09:02.725Z,3960.00
2022-08-08T09:10:04.801Z,3964.00
2022-08-08T09:11:02.785Z,3960.00
2022-08-08T09:12:07.797Z,3952.00
2022-08-08T09:13:02.851Z,3952.00
2022-08-08T09:14:02.878Z,3952.00
2022-08-08T09:15:02.904Z,3952.00
2022-08-08T09:16:03.752Z,3952.00
2022-08-08T09:17:09.822Z,3980.00
2022-08-08T09:18:03.010Z,3984.00
2022-08-08T09:19:03.032Z,3976.00
2022-08-08T09:21:57.370Z,3956.00
2022-08-08T09:21:58.398Z,3976.00
2022-08-08T09:22:05.896Z,3944.00
2022-08-08T09:23:03.149Z,3944.00
2022-08-08T09:24:04.084Z,3952.00
2022-08-08T09:25:03.893Z,3956.00
2022-08-08T09:26:03.324Z,3944.00
2022-08-08T09:27:03.269Z,3940.00
2022-08-08T09:28:03.774Z,3944.00
2022-08-08T09:29:08.269Z,3948.00
2022-08-08T09:30:03.362Z,3964.00
2022-08-08T09:31:12.909Z,3984.00
2022-08-08T09:32:03.421Z,4008.00
2022-08-08T09:33:12.947Z,4016.00
2022-08-08T09:34:31.609Z,4012.00
2022-08-08T09:35:08.140Z,4000.00
2022-08-08T09:36:03.550Z,3984.00
2022-08-08T09:37:34.161Z,3964.00
2022-08-08T09:38:04.169Z,3960.00
2022-08-08T09:39:03.721Z,3960.00
2022-08-08T09:40:03.795Z,3948.00
2022-08-08T09:41:03.697Z,3928.00
2022-08-08T09:42:21.308Z,3928.00
2022-08-08T09:43:06.826Z,3924.00
2022-08-08T09:44:05.373Z,3920.00
2022-08-08T09:45:08.152Z,3900.00
2022-08-08T09:46:06.402Z,3904.00
2022-08-08T09:47:05.579Z,3904.00
2022-08-08T09:48:15.962Z,3900.00
2022-08-08T09:49:18.534Z,3880.00
2022-08-08T09:50:10.068Z,3856.00
2022-08-08T09:51:05.073Z,3828.00
2022-08-08T09:52:09.198Z,3812.00
2022-08-08T09:53:23.452Z,3792.00
2022-08-08T09:54:08.325Z,3780.00
2022-08-08T09:55:04.120Z,3780.00
2022-08-08T09:56:06.667Z,3764.00
2022-08-08T09:57:04.196Z,3756.00
2022-08-08T09:58:04.212Z,3752.00
2022-08-08T09:59:20.201Z,3764.00
2022-08-08T10:01:15.252Z,3768.00
2022-08-08T10:02:12.307Z,3764.00
2022-08-08T10:03:04.365Z,3760.00
2022-08-08T10:04:04.641Z,3752.00
2022-08-08T10:05:14.299Z,3752.00
2022-08-08T10:06:04.529Z,3756.00
2022-08-08T10:07:07.580Z,3736.00
2022-08-08T10:08:04.522Z,3724.00
2022-08-08T10:09:04.552Z,3732.00
2022-08-08T10:10:07.151Z,3768.00
2022-08-08T10:11:12.145Z,3796.00
2022-08-08T10:12:27.444Z,3812.00
2022-08-08T10:13:14.386Z,3844.00
2022-08-08T10:14:06.167Z,3960.00
2022-08-08T10:15:17.543Z,4016.00
2022-08-08T10:16:05.358Z,3984.00
2022-08-08T10:17:55.983Z,3932.00
2022-08-08T10:18:07.758Z,3852.00
2022-08-08T10:19:04.857Z,3812.00
2022-08-08T10:20:04.887Z,3788.00
2022-08-08T10:21:08.249Z,3776.00
2022-08-08T10:22:04.948Z,3784.00
2022-08-08T10:23:04.977Z,3792.00
2022-08-08T10:24:05.038Z,3828.00
2022-08-08T10:25:05.367Z,3852.00
2022-08-08T10:26:05.071Z,3856.00
2022-08-08T10:27:05.103Z,3820.00
2022-08-08T10:28:05.134Z,3768.00
2022-08-08T10:29:05.172Z,3764.00
2022-08-08T10:30:05.200Z,3784.00
2022-08-08T10:31:05.225Z,3820.00
2022-08-08T10:32:05.258Z,3896.00
2022-08-08T10:33:05.287Z,3960.00
2022-08-08T10:34:19.494Z,3916.00
2022-08-08T10:35:11.564Z,3880.00
2022-08-08T10:36:08.372Z,3868.00
2022-08-08T10:37:05.482Z,3896.00
2022-08-08T10:38:05.703Z,3952.00
2022-08-08T10:39:07.203Z,4020.00
2022-08-08T10:40:07.251Z,4012.00
2022-08-08T10:41:05.553Z,3992.00
2022-08-08T10:42:15.118Z,4032.00
2022-08-08T10:43:05.601Z,4116.00
2022-08-08T10:44:05.625Z,4116.00
2022-08-08T10:45:09.026Z,4056.00
2022-08-08T10:46:05.687Z,4280.00
2022-08-08T10:47:05.718Z,4652.00
2022-08-08T10:48:05.746Z,4928.00
2022-08-08T10:49:05.782Z,5176.00
2022-08-08T10:50:05.816Z,5272.00
2022-08-08T10:51:05.843Z,5288.00
2022-08-08T10:52:05.875Z,5204.00
2022-08-08T10:53:07.773Z,5072.00
2022-08-08T10:54:05.942Z,4936.00
2022-08-08T10:55:06.620Z,4820.00
2022-08-08T10:56:05.997Z,4636.00
2022-08-08T10:57:06.025Z,4556.00
2022-08-08T10:58:06.159Z,4412.00
2022-08-08T10:59:06.094Z,4332.00
2022-08-08T11:00:06.119Z,4364.00
2022-08-08T11:01:09.985Z,4344.00
2022-08-08T11:02:06.238Z,4360.00
2022-08-08T11:03:06.235Z,4404.00
2022-08-08T11:04:06.287Z,4368.00
2022-08-08T11:05:14.941Z,4336.00
2022-08-08T11:06:06.308Z,4392.00
2022-08-08T11:07:06.725Z,4476.00
2022-08-08T11:08:31.362Z,4636.00
2022-08-08T11:09:15.015Z,4812.00
2022-08-08T11:10:06.437Z,4872.00
2022-08-08T11:11:07.929Z,4812.00
2022-08-08T11:12:14.062Z,4800.00
2022-08-08T11:13:28.756Z,4976.00
2022-08-08T11:14:06.559Z,5124.00
2022-08-08T11:15:06.599Z,5164.00
2022-08-08T11:16:07.779Z,5164.00
2022-08-08T11:17:06.657Z,5144.00
2022-08-08T11:18:06.686Z,4980.00
2022-08-08T11:19:06.722Z,4856.00
2022-08-08T11:20:10.920Z,4884.00
2022-08-08T11:21:08.896Z,4912.00
2022-08-08T11:22:06.812Z,4948.00
2022-08-08T11:23:06.843Z,4936.00
2022-08-08T11:24:06.879Z,5016.00
2022-08-08T11:25:14.275Z,5092.00
2022-08-08T11:26:06.936Z,4900.00
2022-08-08T11:27:19.170Z,4716.00
2022-08-08T11:28:06.998Z,4548.00
2022-08-08T11:29:07.030Z,4400.00
2022-08-08T11:30:20.296Z,4492.00
2022-08-08T11:31:09.577Z,4868.00
2022-08-08T11:32:07.127Z,5060.00
2022-08-08T11:33:12.092Z,5112.00
2022-08-08T11:34:23.270Z,5028.00
2022-08-08T11:35:23.375Z,5196.00
2022-08-08T11:36:07.253Z,5476.00
2022-08-08T11:37:15.108Z,6024.00
2022-08-08T11:38:37.073Z,6616.00
2022-08-08T11:39:11.057Z,7100.00
2022-08-08T11:40:07.524Z,7348.00
2022-08-08T11:41:07.413Z,7856.00
2022-08-08T11:42:09.059Z,8072.00
2022-08-08T11:43:07.479Z,8228.00
2022-08-08T11:44:07.508Z,8372.00
2022-08-08T11:45:07.540Z,8216.00
2022-08-08T11:46:17.725Z,8200.00
2022-08-08T11:47:12.919Z,8456.00
2022-08-08T11:48:09.846Z,8656.00
2022-08-08T11:49:07.668Z,8716.00
2022-08-08T11:50:10.096Z,8636.00
2022-08-08T11:51:30.610Z,8576.00
2022-08-08T11:52:07.763Z,8852.00
2022-08-08T11:53:07.796Z,9148.00
2022-08-08T11:54:26.734Z,9356.00
2022-08-08T11:55:07.861Z,9416.00
2022-08-08T11:56:07.894Z,9536.00
2022-08-08T11:57:14.095Z,8988.00
2022-08-08T11:58:15.394Z,8356.00
2022-08-08T11:59:07.994Z,7464.00
2022-08-08T12:00:09.812Z,6648.00
2022-08-08T12:01:12.260Z,6112.00
2022-08-08T12:02:31.122Z,5684.00
2022-08-08T12:03:08.188Z,5632.00
2022-08-08T12:04:08.155Z,5652.00
2022-08-08T12:05:08.190Z,5700.00
2022-08-08T12:06:08.218Z,5676.00
2022-08-08T12:07:14.415Z,5680.00
2022-08-08T12:08:08.285Z,5736.00
2022-08-08T12:09:08.330Z,5816.00
2022-08-08T12:10:08.940Z,5940.00
2022-08-08T12:11:08.382Z,5928.00
2022-08-08T12:12:08.412Z,5880.00
2022-08-08T12:13:09.423Z,5884.00
2022-08-08T12:14:11.782Z,5980.00
2022-08-08T12:15:09.465Z,6000.00
2022-08-08T12:16:08.542Z,5952.00
2022-08-08T12:17:08.575Z,5848.00
2022-08-08T12:18:08.611Z,5692.00
2022-08-08T12:19:08.640Z,5768.00
2022-08-08T12:20:08.674Z,5828.00
2022-08-08T12:21:08.708Z,6180.00
2022-08-08T12:22:12.769Z,6516.00
2022-08-08T12:23:13.773Z,6748.00
2022-08-08T12:24:08.917Z,6764.00
2022-08-08T12:25:08.834Z,6720.00
2022-08-08T12:26:08.865Z,6592.00
2022-08-08T12:27:08.900Z,6364.00
2022-08-08T12:28:14.343Z,6220.00
2022-08-08T12:29:08.961Z,6180.00
2022-08-08T12:30:18.546Z,6124.00
2022-08-08T12:31:09.028Z,5984.00
2022-08-08T12:32:09.315Z,5964.00
2022-08-08T12:33:09.098Z,5956.00
2022-08-08T12:34:09.272Z,5768.00
2022-08-08T12:35:17.815Z,5692.00
2022-08-08T12:36:09.192Z,5540.00
2022-08-08T12:37:09.226Z,5360.00